Details From KAPA - Centennial
To KASE - Aspen Pitkin Co Sardy Fld
Flight Number -
Tags Generated
Created
Modified
Stats Distance 96 nm / 178 km
Max Altitude 0 ft / 0 m
Waypoints 2
Social Downloads 5
Likes 0
Share VATSIM

Download

Looking for another format? Having issues loading an existing format? Contact us
Advertisement - Login to hide

Notes

Generated

Route

KAPA KASE

ID Type Via Altitude Latitude Longitude Leg Dist Tot Dist Heading (true) Name
O KAPA APT - 0 ft / 0 m 39.57290˚ -104.84822˚ - 0 nm - CENTENNIAL
O KASE APT - 0 ft / 0 m 39.23217˚ -106.87315˚ 96 nm 96 nm 258° / 257° -

Altitude Profile

Advertisement - Login to hide

KAPA

Details ICAO KAPA (APA)
Name CENTENNIAL
Region United States
Timezone America/Denver (UTC-6.0)
Stats Elevation 5,883 ft / 1,793 m (AMSL)
Location 39.570116° -104.848132°
Runways 3
Magnetic Variation 8.083° E

METAR

KAPA 230453Z 13003KT 10SM FEW120 FEW220 13/09 A3002 RMK AO2 RAB06E25 SLP109 P0001 T01330089 $

Decode

TAF

TAF AMD KAPA 230408Z 2304/2324 06010KT P6SM VCTS SCT100CB BKN140 TEMPO 2304/2305 -SHRA BKN090 FM230500 16012KT P6SM SCT090 SCT140 BKN200 FM230600 21009KT P6SM FEW140 FM231800 17014G22KT P6SM SCT120

Decode

Departure Runways

ID Width Length Bearing (true) Bearing (mag) Surface Threshold Offset Overrun Length
10 75 ft / 23 m 4,791 ft / 1,460 m 111.02° 102.94° Asphalt 0 ft / 0 m 0 ft / 0 m
17L 100 ft / 30 m 10,017 ft / 3,053 m 177.97° 169.89° Asphalt 0 ft / 0 m 0 ft / 0 m
17R 77 ft / 23 m 7,014 ft / 2,138 m 177.96° 169.88° Asphalt 0 ft / 0 m 0 ft / 0 m
28 75 ft / 23 m 4,791 ft / 1,460 m 291.03° 282.95° Asphalt 0 ft / 0 m 0 ft / 0 m
35L 77 ft / 23 m 7,014 ft / 2,138 m 357.96° 349.88° Asphalt 0 ft / 0 m 0 ft / 0 m
35R 100 ft / 30 m 10,017 ft / 3,053 m 357.97° 349.89° Asphalt 0 ft / 0 m 0 ft / 0 m

KASE

Details ICAO KASE (ASE)
Name Aspen Pitkin Co Sardy Fld
Region United States
Timezone America/Denver (UTC-6.0)
Stats Elevation 7,820 ft / 2,384 m (AMSL)
Location 39.223164° -106.868847°
Runways 1
Magnetic Variation 9.051° E

METAR

KASE 230453Z AUTO 22005KT 10SM CLR 06/02 A3013 RMK AO2 SLP104 T00560022

Decode

TAF

KASE 230103Z 2301/2324 15015G24KT P6SM -RA VCTS FEW040 BKN050CB FM230230 19005KT P6SM SCT060 BKN140 FM231400 12008KT P6SM FEW250 FM231800 20011G18KT P6SM FEW090 SCT120

Decode

Destination Runways

ID Width Length Bearing (true) Bearing (mag) Surface Threshold Offset Overrun Length
15 100 ft / 30 m 7,011 ft / 2,137 m 159.71° 150.66° Asphalt 0 ft / 0 m 499 ft / 152 m
33 100 ft / 30 m 7,011 ft / 2,137 m 339.71° 330.66° Asphalt 0 ft / 0 m 0 ft / 0 m

Approach Navaids

Runway Type Ident Frequency Range Bearing (true) Bearing (mag) Slope Elevation
15 Localiser IPKN 108.50 MHz 25 nm / 46 km 312.00° 302.95° - 10,768 ft / 3,282 m (AMSL)
15 Localiser IASE 111.15 MHz 18 nm / 33 km 159.71° 150.66° - 7,832 ft / 2,387 m (AMSL)
15 DME IASE 111.15 MHz 18 nm / 33 km - - - 7,830 ft / 2,387 m (AMSL)

Popular Alternatives